Mein Schiff 4 — 9HA3513 — position and weather

sailwx.info

Track history (hours):
 
Tides and Currents Weather Stations Pressure Air Temp Water Temp Dewpoint Dewpoint Depression Visibility Wind Speed Wind Dir Waves Ship Positions

Mein Schiff 4

Last reported at 2018-Feb-19 03:49 UTC. Time now 2018-Feb-22 05:16 UTC.
Position N 28°59' W 015°33'.

Length 294 m; draft 8.2 m.

Type: Passenger vessel. MMSI: 229678000.

Date/timePositionNaut miles runAvg speedWind from/ knotsBaromVisibWave heightAir tempDewpointWater temp
2018-Feb-19 03:49N 28°59' W 015°33'411.6
2018-Feb-19 03:30N 28°56' W 015°32'611.6
2018-Feb-19 03:00N 28°50' W 015°30'611.5
2018-Feb-19 02:30N 28°45' W 015°28'611.6
2018-Feb-19 02:00N 28°39' W 015°26'611.5
2018-Feb-19 01:30N 28°34' W 015°24'611.8
2018-Feb-19 01:00N 28°28' W 015°22'612.0
2018-Feb-19 00:30N 28°22' W 015°21'612.1
2018-Feb-19 00:00N 28°16' W 015°21'612.0
2018-Feb-18 23:30N 28°10' W 015°21'4 8.5
2018-Feb-18 23:00N 28°07' W 015°24'2 4.0
2018-Feb-18 22:30N 28°08' W 015°25'0 0.0
2018-Feb-18 21:59N 28°08' W 015°25'0 0.0
2018-Feb-18 21:29N 28°08' W 015°25'0 0.0
2018-Feb-18 20:59N 28°08' W 015°25'0 0.0
2018-Feb-18 20:29N 28°08' W 015°25'0 0.0
2018-Feb-18 19:59N 28°08' W 015°25'0 0.0
2018-Feb-18 19:29N 28°08' W 015°25'0 0.0
2018-Feb-18 18:59N 28°08' W 015°25'0 0.0
2018-Feb-18 18:29N 28°08' W 015°25'0 0.0
2018-Feb-18 17:47N 28°08' W 015°25'0 0.0
2018-Feb-18 17:29N 28°08' W 015°25'0 0.0
2018-Feb-18 16:59N 28°08' W 015°25'0 0.0
2018-Feb-18 16:29N 28°08' W 015°25'0 0.0
2018-Feb-18 15:47N 28°08' W 015°25'0 0.0
2018-Feb-18 15:05N 28°08' W 015°25'0 0.0
2018-Feb-18 14:50N 28°08' W 015°25'0 0.0
2018-Feb-18 14:23N 28°08' W 015°25'0 0.0
2018-Feb-18 13:53N 28°08' W 015°25'0 0.0
2018-Feb-18 13:23N 28°08' W 015°25'0 0.0
2018-Feb-18 12:53N 28°08' W 015°25'0 0.0
2018-Feb-18 12:23N 28°08' W 015°25'0 0.0
2018-Feb-18 11:53N 28°08' W 015°25'0 0.0
2018-Feb-18 11:23N 28°08' W 015°25'0 0.0
2018-Feb-18 10:56N 28°08' W 015°25'0 0.0
2018-Feb-18 10:26N 28°08' W 015°25'0 0.0
2018-Feb-18 09:56N 28°08' W 015°25'0 0.0
2018-Feb-18 09:26N 28°08' W 015°25'0 0.0
2018-Feb-18 08:56N 28°08' W 015°25'0 0.0
2018-Feb-18 08:29N 28°08' W 015°25'0 0.0
2018-Feb-18 07:59N 28°08' W 015°25'0 0.0
2018-Feb-18 07:29N 28°08' W 015°25'0 0.0
2018-Feb-18 06:59N 28°08' W 015°25'0 0.0
2018-Feb-18 06:29N 28°08' W 015°25'0 0.0
2018-Feb-18 05:59N 28°08' W 015°25'0 0.0
2018-Feb-18 05:29N 28°08' W 015°25'0 0.0
2018-Feb-18 04:59N 28°08' W 015°25'0 0.7
2018-Feb-18 04:29N 28°08' W 015°25'1 2.7
2018-Feb-18 04:00N 28°07' W 015°24'3 6.9
2018-Feb-18 03:30N 28°05' W 015°21'510.7
2018-Feb-18 03:00N 28°02' W 015°16'510.2
2018-Feb-18 02:30N 27°57' W 015°16'510.8
2018-Feb-18 02:00N 27°51' W 015°16'5 9.9
2018-Feb-18 01:30N 27°47' W 015°19'59 2.5
2018-Feb-17 01:45N 28°04' W 016°23'2 8.9
2018-Feb-17 01:30N 28°07' W 016°22'4 8.8
2018-Feb-17 01:00N 28°10' W 016°20'5 9.0
2018-Feb-17 00:30N 28°14' W 016°18'612.9
2018-Feb-17 00:00N 28°20' W 016°14'713.1
2018-Feb-16 23:30N 28°26' W 016°11'4 7.3
2018-Feb-16 23:00N 28°29' W 016°14'0 0.3
2018-Feb-16 22:26N 28°29' W 016°14'0 0.0
2018-Feb-16 21:56N 28°29' W 016°14'0 0.0
2018-Feb-16 21:26N 28°29' W 016°14'0 0.0
2018-Feb-16 20:56N 28°29' W 016°14'0 0.0
2018-Feb-16 20:26N 28°29' W 016°14'0 0.0
2018-Feb-16 19:56N 28°29' W 016°14'0 0.0
2018-Feb-16 19:26N 28°29' W 016°14'0 0.0
2018-Feb-16 18:56N 28°29' W 016°14'0 0.0
2018-Feb-16 18:26N 28°29' W 016°14'0 0.0
2018-Feb-16 17:56N 28°29' W 016°14'0 0.0
2018-Feb-16 17:26N 28°29' W 016°14'0 0.0
2018-Feb-16 16:56N 28°29' W 016°14'0 0.0
2018-Feb-16 16:20N 28°29' W 016°14'0 0.0
2018-Feb-16 15:56N 28°29' W 016°14'0 0.0
2018-Feb-16 15:26N 28°29' W 016°14'0 0.0
2018-Feb-16 14:56N 28°29' W 016°14'0 0.0
2018-Feb-16 14:26N 28°29' W 016°14'0 0.0
2018-Feb-16 13:56N 28°29' W 016°14'0 0.0
2018-Feb-16 13:26N 28°29' W 016°14'0 0.0
2018-Feb-16 12:56N 28°29' W 016°14'0 0.0
2018-Feb-16 12:26N 28°29' W 016°14'0 0.0
2018-Feb-16 11:56N 28°29' W 016°14'0 0.0
2018-Feb-16 11:26N 28°29' W 016°14'0 0.0
2018-Feb-16 10:56N 28°29' W 016°14'0 0.0
2018-Feb-16 10:26N 28°29' W 016°14'0 0.0
2018-Feb-16 09:56N 28°29' W 016°14'0 0.0
2018-Feb-16 09:26N 28°29' W 016°14'0 0.0
2018-Feb-16 08:56N 28°29' W 016°14'0 0.0
2018-Feb-16 08:26N 28°29' W 016°14'0 0.0
2018-Feb-16 07:56N 28°29' W 016°14'0 0.4
2018-Feb-16 07:26N 28°29' W 016°14'1 2.0
2018-Feb-16 07:00N 28°28' W 016°13'4 7.4
2018-Feb-16 06:29N 28°27' W 016°09'611.9
2018-Feb-16 06:00N 28°27' W 016°03'611.2
2018-Feb-16 05:30N 28°27' W 015°56'611.2
2018-Feb-16 05:00N 28°30' W 015°51'611.3
2018-Feb-16 04:29N 28°34' W 015°46'611.7
2018-Feb-16 04:00N 28°37' W 015°41'612.2
2018-Feb-16 03:30N 28°39' W 015°34'612.4
2018-Feb-16 03:00N 28°40' W 015°27'612.6
2018-Feb-16 02:30N 28°41' W 015°20'612.6
2018-Feb-16 02:00N 28°42' W 015°13'612.5
2018-Feb-16 01:30N 28°43' W 015°06'612.7
2018-Feb-16 01:00N 28°43' W 014°59'612.4
2018-Feb-16 00:30N 28°43' W 014°52'612.6
2018-Feb-16 00:00N 28°44' W 014°45'612.7
2018-Feb-15 23:30N 28°45' W 014°38'612.6
2018-Feb-15 23:00N 28°46' W 014°31'612.7
2018-Feb-15 22:30N 28°46' W 014°23'713.0
2018-Feb-15 22:00N 28°47' W 014°16'613.1
2018-Feb-15 21:30N 28°48' W 014°09'612.7
2018-Feb-15 21:00N 28°48' W 014°01'612.9
2018-Feb-15 20:30N 28°48' W 013°54'612.7
2018-Feb-15 20:00N 28°48' W 013°47'612.8
2018-Feb-15 19:30N 28°51' W 013°40'612.9
2018-Feb-15 19:00N 28°54' W 013°34'4 7.0
2018-Feb-15 18:28N 28°58' W 013°32'0 0.2
2018-Feb-15 17:06N 28°58' W 013°32'0 0.0
2018-Feb-15 15:00N 28°58' W 013°32'0 0.0
2018-Feb-15 14:30N 28°58' W 013°32'0 0.0
2018-Feb-15 13:57N 28°58' W 013°32'0 0.0
2018-Feb-15 13:30N 28°58' W 013°32'0 0.0
2018-Feb-15 13:00N 28°58' W 013°32'0 0.0
2018-Feb-15 12:30N 28°58' W 013°32'0 0.0
2018-Feb-15 12:00N 28°58' W 013°32'0 0.0
2018-Feb-15 11:30N 28°58' W 013°32'0 0.0
2018-Feb-15 11:00N 28°58' W 013°32'0 0.0
2018-Feb-15 10:30N 28°58' W 013°32'0 0.0
2018-Feb-15 09:54N 28°58' W 013°32'0 0.0
2018-Feb-15 09:30N 28°58' W 013°32'0 0.0
2018-Feb-15 09:00N 28°58' W 013°32'0 0.0
2018-Feb-15 08:24N 28°58' W 013°32'0 0.0
2018-Feb-15 07:54N 28°58' W 013°32'0 0.0
2018-Feb-15 07:30N 28°58' W 013°32'0 0.0
2018-Feb-15 06:54N 28°58' W 013°32'0 0.0
2018-Feb-15 06:24N 28°58' W 013°32'0 0.0
2018-Feb-15 05:57N 28°58' W 013°32'0 0.0
2018-Feb-15 05:27N 28°58' W 013°32'0 0.0
2018-Feb-15 05:00N 28°58' W 013°32'0 0.0
2018-Feb-15 04:24N 28°58' W 013°32'0 0.0
2018-Feb-15 03:54N 28°58' W 013°32'0 0.0
2018-Feb-15 03:30N 28°58' W 013°32'0 0.0
2018-Feb-15 03:00N 28°58' W 013°32'0 0.0
2018-Feb-15 02:30N 28°58' W 013°32'0 0.0
2018-Feb-15 02:00N 28°58' W 013°32'0 0.0
2018-Feb-15 01:30N 28°58' W 013°32'0 0.0
2018-Feb-15 01:00N 28°58' W 013°32'0 0.0
2018-Feb-15 00:30N 28°58' W 013°32'0 0.0
2018-Feb-15 00:00N 28°58' W 013°32'0 0.0
2018-Feb-14 23:30N 28°58' W 013°32'0 0.0
2018-Feb-14 23:00N 28°58' W 013°32'0 0.0
2018-Feb-14 22:30N 28°58' W 013°32'0 0.0
2018-Feb-14 22:00N 28°58' W 013°32'0 0.0
2018-Feb-14 21:30N 28°58' W 013°32'0 0.0
2018-Feb-14 21:00N 28°58' W 013°32'0 0.0
2018-Feb-14 20:21N 28°58' W 013°32'0 0.0
2018-Feb-14 19:51N 28°58' W 013°32'0 0.0
2018-Feb-14 18:54N 28°58' W 013°32'1 1.3
2018-Feb-14 18:30N 28°58' W 013°32'2 4.7
2018-Feb-14 18:00N 28°57' W 013°29'4 8.2
2018-Feb-14 17:30N 28°57' W 013°25'4 8.9
2018-Feb-14 17:00N 28°59' W 013°20'4 8.9
2018-Feb-14 16:30N 29°01' W 013°16'5 8.7
2018-Feb-14 15:59N 29°03' W 013°11'4 8.9
2018-Feb-14 15:30N 29°05' W 013°06'5 9.4
2018-Feb-14 15:00N 29°07' W 013°02'5 9.4
2018-Feb-14 14:30N 29°09' W 012°57'5 9.4
2018-Feb-14 14:00N 29°11' W 012°52'5 9.1
2018-Feb-14 13:30N 29°13' W 012°47'4 8.8
2018-Feb-14 13:00N 29°15' W 012°42'5 9.1
2018-Feb-14 12:30N 29°16' W 012°38'5 9.5
2018-Feb-14 12:00N 29°18' W 012°33'5 9.5
2018-Feb-14 11:30N 29°20' W 012°28'1611.2
2018-Feb-14 10:02N 29°27' W 012°11'113.2
2018-Feb-14 09:57N 29°28' W 012°10'613.2
2018-Feb-14 09:30N 29°30' W 012°03'1013.0
2018-Feb-14 08:43N 29°35' W 011°53'313.0
2018-Feb-14 08:30N 29°36' W 011°50'912.9
2018-Feb-14 07:49N 29°39' W 011°41'712.9
2018-Feb-14 07:16N 29°42' W 011°33'312.6
2018-Feb-14 07:00N 29°44' W 011°30'612.8
2018-Feb-14 06:29N 29°46' W 011°23'99 2.3
2018-Feb-12 11:34N 29°02' W 013°04'311.2
2018-Feb-12 11:17N 29°01' W 013°07'4911.6
2018-Feb-12 07:02N 28°48' W 014°02'111.3
2018-Feb-12 06:55N 28°48' W 014°03'511.2
2018-Feb-12 06:30N 28°45' W 014°07'611.1
2018-Feb-12 06:00N 28°42' W 014°13'611.3
2018-Feb-12 05:30N 28°39' W 014°18'611.3
2018-Feb-12 05:00N 28°36' W 014°24'511.2
2018-Feb-12 04:30N 28°33' W 014°29'611.4
2018-Feb-12 04:00N 28°30' W 014°34'611.4
2018-Feb-12 03:30N 28°27' W 014°40'611.3
2018-Feb-12 03:00N 28°23' W 014°45'611.1
2018-Feb-12 02:30N 28°20' W 014°50'611.1
2018-Feb-12 02:00N 28°15' W 014°52'510.9
2018-Feb-12 01:30N 28°09' W 014°54'510.0
2018-Feb-12 01:00N 28°06' W 014°58'612.0
2018-Feb-12 00:30N 28°06' W 015°05'612.1
2018-Feb-12 00:00N 28°06' W 015°12'612.1
2018-Feb-11 23:30N 28°07' W 015°18'5 9.9
2018-Feb-11 23:00N 28°07' W 015°24'2 3.2
2018-Feb-11 22:28N 28°08' W 015°25'0 0.0
2018-Feb-11 21:58N 28°08' W 015°25'0 0.0
2018-Feb-11 21:25N 28°08' W 015°25'0 0.0
2018-Feb-11 20:58N 28°08' W 015°25'0 0.0
2018-Feb-11 20:28N 28°08' W 015°25'0 0.0
2018-Feb-11 19:58N 28°08' W 015°25'0 0.0
2018-Feb-11 19:28N 28°08' W 015°25'0 0.0
2018-Feb-11 18:58N 28°08' W 015°25'0 0.0
2018-Feb-11 18:28N 28°08' W 015°25'0 0.0
2018-Feb-11 17:58N 28°08' W 015°25'0 0.0
2018-Feb-11 17:28N 28°08' W 015°25'0 0.0
2018-Feb-11 16:46N 28°08' W 015°25'0 0.0
2018-Feb-11 16:19N 28°08' W 015°25'0 0.0
2018-Feb-11 15:49N 28°08' W 015°25'0 0.0
2018-Feb-11 15:22N 28°08' W 015°25'0 0.0
2018-Feb-11 14:52N 28°08' W 015°25'0 0.0
2018-Feb-11 14:22N 28°08' W 015°25'0 0.0
2018-Feb-11 13:49N 28°08' W 015°25'0 0.0
2018-Feb-11 13:22N 28°08' W 015°25'0 0.0
2018-Feb-11 12:55N 28°08' W 015°25'0 0.0
2018-Feb-11 12:25N 28°08' W 015°25'0 0.0
2018-Feb-11 11:55N 28°08' W 015°25'0 0.0
2018-Feb-11 11:25N 28°08' W 015°25'0 0.0
2018-Feb-11 10:55N 28°08' W 015°25'0 0.0
2018-Feb-11 10:25N 28°08' W 015°25'0 0.0
2018-Feb-11 09:58N 28°08' W 015°25'0 0.0
2018-Feb-11 09:25N 28°08' W 015°25'0 0.0
2018-Feb-11 08:58N 28°08' W 015°25'0 0.0
2018-Feb-11 08:25N 28°08' W 015°25'0 0.0
2018-Feb-11 07:58N 28°08' W 015°25'0 0.0
2018-Feb-11 07:28N 28°08' W 015°25'0 0.0
2018-Feb-11 06:46N 28°08' W 015°25'0 0.0
2018-Feb-11 06:28N 28°08' W 015°25'0 0.0
2018-Feb-11 05:58N 28°08' W 015°25'0 0.0
2018-Feb-11 05:28N 28°08' W 015°25'0 0.0
2018-Feb-11 04:58N 28°08' W 015°25'0 0.5
2018-Feb-11 04:30N 28°08' W 015°25'1 2.2
2018-Feb-11 04:00N 28°07' W 015°25'4 7.1
2018-Feb-11 03:30N 28°07' W 015°21'4 7.9
2018-Feb-11 03:00N 28°07' W 015°16'510.2
2018-Feb-11 02:30N 28°07' W 015°11'713.0
2018-Feb-11 02:00N 28°07' W 015°03'612.7
2018-Feb-11 01:30N 28°07' W 014°56'612.5
2018-Feb-11 01:00N 28°05' W 014°49'612.6
2018-Feb-11 00:30N 28°03' W 014°42'712.6
2018-Feb-10 23:59N 28°01' W 014°35'613.2
2018-Feb-10 23:30N 27°58' W 014°29'52 3.0
2018-Feb-10 06:15N 28°34' W 013°46'411.0
2018-Feb-10 05:55N 28°38' W 013°46'511.0
2018-Feb-10 05:31N 28°42' W 013°46'610.8
2018-Feb-10 04:59N 28°48' W 013°47'511.1
2018-Feb-10 04:31N 28°48' W 013°53'4313.6
2018-Feb-10 01:18N 28°43' W 014°42'515.5
2018-Feb-10 00:59N 28°42' W 014°48'715.1
2018-Feb-10 00:30N 28°41' W 014°56'713.6
2018-Feb-10 00:00N 28°40' W 015°04'815.5
2018-Feb-09 23:30N 28°39' W 015°13'815.2
2018-Feb-09 23:00N 28°38' W 015°21'415.3
2018-Feb-09 22:46N 28°37' W 015°25'4112.6
2018-Feb-09 19:30N 28°27' W 016°10'  
Track history (hours):
 
Tides and Currents Weather Stations Pressure Air Temp Water Temp Dewpoint Dewpoint Depression Visibility Wind Speed Wind Dir Waves Ship Positions

Mein Schiff 4

Last reported at 2018-Feb-19 03:49 UTC. Time now 2018-Feb-22 05:16 UTC.
Position N 28°59' W 015°33'.

Length 294 m; draft 8.2 m.

Type: Passenger vessel. MMSI: 229678000.

Date/timePositionNaut miles runAvg speedWind from/ knotsBaromVisibWave heightAir tempDewpointWater temp
2018-Feb-19 03:49N 28°59' W 015°33'411.6
2018-Feb-19 03:30N 28°56' W 015°32'611.6
2018-Feb-19 03:00N 28°50' W 015°30'611.5
2018-Feb-19 02:30N 28°45' W 015°28'611.6
2018-Feb-19 02:00N 28°39' W 015°26'611.5
2018-Feb-19 01:30N 28°34' W 015°24'611.8
2018-Feb-19 01:00N 28°28' W 015°22'612.0
2018-Feb-19 00:30N 28°22' W 015°21'612.1
2018-Feb-19 00:00N 28°16' W 015°21'612.0
2018-Feb-18 23:30N 28°10' W 015°21'4 8.5
2018-Feb-18 23:00N 28°07' W 015°24'2 4.0
2018-Feb-18 22:30N 28°08' W 015°25'0 0.0
2018-Feb-18 21:59N 28°08' W 015°25'0 0.0
2018-Feb-18 21:29N 28°08' W 015°25'0 0.0
2018-Feb-18 20:59N 28°08' W 015°25'0 0.0
2018-Feb-18 20:29N 28°08' W 015°25'0 0.0
2018-Feb-18 19:59N 28°08' W 015°25'0 0.0
2018-Feb-18 19:29N 28°08' W 015°25'0 0.0
2018-Feb-18 18:59N 28°08' W 015°25'0 0.0
2018-Feb-18 18:29N 28°08' W 015°25'0 0.0
2018-Feb-18 17:47N 28°08' W 015°25'0 0.0
2018-Feb-18 17:29N 28°08' W 015°25'0 0.0
2018-Feb-18 16:59N 28°08' W 015°25'0 0.0
2018-Feb-18 16:29N 28°08' W 015°25'0 0.0
2018-Feb-18 15:47N 28°08' W 015°25'0 0.0
2018-Feb-18 15:05N 28°08' W 015°25'0 0.0
2018-Feb-18 14:50N 28°08' W 015°25'0 0.0
2018-Feb-18 14:23N 28°08' W 015°25'0 0.0
2018-Feb-18 13:53N 28°08' W 015°25'0 0.0
2018-Feb-18 13:23N 28°08' W 015°25'0 0.0
2018-Feb-18 12:53N 28°08' W 015°25'0 0.0
2018-Feb-18 12:23N 28°08' W 015°25'0 0.0
2018-Feb-18 11:53N 28°08' W 015°25'0 0.0
2018-Feb-18 11:23N 28°08' W 015°25'0 0.0
2018-Feb-18 10:56N 28°08' W 015°25'0 0.0
2018-Feb-18 10:26N 28°08' W 015°25'0 0.0
2018-Feb-18 09:56N 28°08' W 015°25'0 0.0
2018-Feb-18 09:26N 28°08' W 015°25'0 0.0
2018-Feb-18 08:56N 28°08' W 015°25'0 0.0
2018-Feb-18 08:29N 28°08' W 015°25'0 0.0
2018-Feb-18 07:59N 28°08' W 015°25'0 0.0
2018-Feb-18 07:29N 28°08' W 015°25'0 0.0
2018-Feb-18 06:59N 28°08' W 015°25'0 0.0
2018-Feb-18 06:29N 28°08' W 015°25'0 0.0
2018-Feb-18 05:59N 28°08' W 015°25'0 0.0
2018-Feb-18 05:29N 28°08' W 015°25'0 0.0
2018-Feb-18 04:59N 28°08' W 015°25'0 0.7
2018-Feb-18 04:29N 28°08' W 015°25'1 2.7
2018-Feb-18 04:00N 28°07' W 015°24'3 6.9
2018-Feb-18 03:30N 28°05' W 015°21'510.7
2018-Feb-18 03:00N 28°02' W 015°16'510.2
2018-Feb-18 02:30N 27°57' W 015°16'510.8
2018-Feb-18 02:00N 27°51' W 015°16'5 9.9
2018-Feb-18 01:30N 27°47' W 015°19'59 2.5
2018-Feb-17 01:45N 28°04' W 016°23'2 8.9
2018-Feb-17 01:30N 28°07' W 016°22'4 8.8
2018-Feb-17 01:00N 28°10' W 016°20'5 9.0
2018-Feb-17 00:30N 28°14' W 016°18'612.9
2018-Feb-17 00:00N 28°20' W 016°14'713.1
2018-Feb-16 23:30N 28°26' W 016°11'4 7.3
2018-Feb-16 23:00N 28°29' W 016°14'0 0.3
2018-Feb-16 22:26N 28°29' W 016°14'0 0.0
2018-Feb-16 21:56N 28°29' W 016°14'0 0.0
2018-Feb-16 21:26N 28°29' W 016°14'0 0.0
2018-Feb-16 20:56N 28°29' W 016°14'0 0.0
2018-Feb-16 20:26N 28°29' W 016°14'0 0.0
2018-Feb-16 19:56N 28°29' W 016°14'0 0.0
2018-Feb-16 19:26N 28°29' W 016°14'0 0.0
2018-Feb-16 18:56N 28°29' W 016°14'0 0.0
2018-Feb-16 18:26N 28°29' W 016°14'0 0.0
2018-Feb-16 17:56N 28°29' W 016°14'0 0.0
2018-Feb-16 17:26N 28°29' W 016°14'0 0.0
2018-Feb-16 16:56N 28°29' W 016°14'0 0.0
2018-Feb-16 16:20N 28°29' W 016°14'0 0.0
2018-Feb-16 15:56N 28°29' W 016°14'0 0.0
2018-Feb-16 15:26N 28°29' W 016°14'0 0.0
2018-Feb-16 14:56N 28°29' W 016°14'0 0.0
2018-Feb-16 14:26N 28°29' W 016°14'0 0.0
2018-Feb-16 13:56N 28°29' W 016°14'0 0.0
2018-Feb-16 13:26N 28°29' W 016°14'0 0.0
2018-Feb-16 12:56N 28°29' W 016°14'0 0.0
2018-Feb-16 12:26N 28°29' W 016°14'0 0.0
2018-Feb-16 11:56N 28°29' W 016°14'0 0.0
2018-Feb-16 11:26N 28°29' W 016°14'0 0.0
2018-Feb-16 10:56N 28°29' W 016°14'0 0.0
2018-Feb-16 10:26N 28°29' W 016°14'0 0.0
2018-Feb-16 09:56N 28°29' W 016°14'0 0.0
2018-Feb-16 09:26N 28°29' W 016°14'0 0.0
2018-Feb-16 08:56N 28°29' W 016°14'0 0.0
2018-Feb-16 08:26N 28°29' W 016°14'0 0.0
2018-Feb-16 07:56N 28°29' W 016°14'0 0.4
2018-Feb-16 07:26N 28°29' W 016°14'1 2.0
2018-Feb-16 07:00N 28°28' W 016°13'4 7.4
2018-Feb-16 06:29N 28°27' W 016°09'611.9
2018-Feb-16 06:00N 28°27' W 016°03'611.2
2018-Feb-16 05:30N 28°27' W 015°56'611.2
2018-Feb-16 05:00N 28°30' W 015°51'611.3
2018-Feb-16 04:29N 28°34' W 015°46'611.7
2018-Feb-16 04:00N 28°37' W 015°41'612.2
2018-Feb-16 03:30N 28°39' W 015°34'612.4
2018-Feb-16 03:00N 28°40' W 015°27'612.6
2018-Feb-16 02:30N 28°41' W 015°20'612.6
2018-Feb-16 02:00N 28°42' W 015°13'612.5
2018-Feb-16 01:30N 28°43' W 015°06'612.7
2018-Feb-16 01:00N 28°43' W 014°59'612.4
2018-Feb-16 00:30N 28°43' W 014°52'612.6
2018-Feb-16 00:00N 28°44' W 014°45'612.7
2018-Feb-15 23:30N 28°45' W 014°38'612.6
2018-Feb-15 23:00N 28°46' W 014°31'612.7
2018-Feb-15 22:30N 28°46' W 014°23'713.0
2018-Feb-15 22:00N 28°47' W 014°16'613.1
2018-Feb-15 21:30N 28°48' W 014°09'612.7
2018-Feb-15 21:00N 28°48' W 014°01'612.9
2018-Feb-15 20:30N 28°48' W 013°54'612.7
2018-Feb-15 20:00N 28°48' W 013°47'612.8
2018-Feb-15 19:30N 28°51' W 013°40'612.9
2018-Feb-15 19:00N 28°54' W 013°34'4 7.0
2018-Feb-15 18:28N 28°58' W 013°32'0 0.2
2018-Feb-15 17:06N 28°58' W 013°32'0 0.0
2018-Feb-15 15:00N 28°58' W 013°32'0 0.0
2018-Feb-15 14:30N 28°58' W 013°32'0 0.0
2018-Feb-15 13:57N 28°58' W 013°32'0 0.0
2018-Feb-15 13:30N 28°58' W 013°32'0 0.0
2018-Feb-15 13:00N 28°58' W 013°32'0 0.0
2018-Feb-15 12:30N 28°58' W 013°32'0 0.0
2018-Feb-15 12:00N 28°58' W 013°32'0 0.0
2018-Feb-15 11:30N 28°58' W 013°32'0 0.0
2018-Feb-15 11:00N 28°58' W 013°32'0 0.0
2018-Feb-15 10:30N 28°58' W 013°32'0 0.0
2018-Feb-15 09:54N 28°58' W 013°32'0 0.0
2018-Feb-15 09:30N 28°58' W 013°32'0 0.0
2018-Feb-15 09:00N 28°58' W 013°32'0 0.0
2018-Feb-15 08:24N 28°58' W 013°32'0 0.0
2018-Feb-15 07:54N 28°58' W 013°32'0 0.0
2018-Feb-15 07:30N 28°58' W 013°32'0 0.0
2018-Feb-15 06:54N 28°58' W 013°32'0 0.0
2018-Feb-15 06:24N 28°58' W 013°32'0 0.0
2018-Feb-15 05:57N 28°58' W 013°32'0 0.0
2018-Feb-15 05:27N 28°58' W 013°32'0 0.0
2018-Feb-15 05:00N 28°58' W 013°32'0 0.0
2018-Feb-15 04:24N 28°58' W 013°32'0 0.0
2018-Feb-15 03:54N 28°58' W 013°32'0 0.0
2018-Feb-15 03:30N 28°58' W 013°32'0 0.0
2018-Feb-15 03:00N 28°58' W 013°32'0 0.0
2018-Feb-15 02:30N 28°58' W 013°32'0 0.0
2018-Feb-15 02:00N 28°58' W 013°32'0 0.0
2018-Feb-15 01:30N 28°58' W 013°32'0 0.0
2018-Feb-15 01:00N 28°58' W 013°32'0 0.0
2018-Feb-15 00:30N 28°58' W 013°32'0 0.0
2018-Feb-15 00:00N 28°58' W 013°32'0 0.0
2018-Feb-14 23:30N 28°58' W 013°32'0 0.0
2018-Feb-14 23:00N 28°58' W 013°32'0 0.0
2018-Feb-14 22:30N 28°58' W 013°32'0 0.0
2018-Feb-14 22:00N 28°58' W 013°32'0 0.0
2018-Feb-14 21:30N 28°58' W 013°32'0 0.0
2018-Feb-14 21:00N 28°58' W 013°32'0 0.0
2018-Feb-14 20:21N 28°58' W 013°32'0 0.0
2018-Feb-14 19:51N 28°58' W 013°32'0 0.0
2018-Feb-14 18:54N 28°58' W 013°32'1 1.3
2018-Feb-14 18:30N 28°58' W 013°32'2 4.7
2018-Feb-14 18:00N 28°57' W 013°29'4 8.2
2018-Feb-14 17:30N 28°57' W 013°25'4 8.9
2018-Feb-14 17:00N 28°59' W 013°20'4 8.9
2018-Feb-14 16:30N 29°01' W 013°16'5 8.7
2018-Feb-14 15:59N 29°03' W 013°11'4 8.9
2018-Feb-14 15:30N 29°05' W 013°06'5 9.4
2018-Feb-14 15:00N 29°07' W 013°02'5 9.4
2018-Feb-14 14:30N 29°09' W 012°57'5 9.4
2018-Feb-14 14:00N 29°11' W 012°52'5 9.1
2018-Feb-14 13:30N 29°13' W 012°47'4 8.8
2018-Feb-14 13:00N 29°15' W 012°42'5 9.1
2018-Feb-14 12:30N 29°16' W 012°38'5 9.5
2018-Feb-14 12:00N 29°18' W 012°33'5 9.5
2018-Feb-14 11:30N 29°20' W 012°28'1611.2
2018-Feb-14 10:02N 29°27' W 012°11'113.2
2018-Feb-14 09:57N 29°28' W 012°10'613.2
2018-Feb-14 09:30N 29°30' W 012°03'1013.0
2018-Feb-14 08:43N 29°35' W 011°53'313.0
2018-Feb-14 08:30N 29°36' W 011°50'912.9
2018-Feb-14 07:49N 29°39' W 011°41'712.9
2018-Feb-14 07:16N 29°42' W 011°33'312.6
2018-Feb-14 07:00N 29°44' W 011°30'612.8
2018-Feb-14 06:29N 29°46' W 011°23'99 2.3
2018-Feb-12 11:34N 29°02' W 013°04'311.2
2018-Feb-12 11:17N 29°01' W 013°07'4911.6
2018-Feb-12 07:02N 28°48' W 014°02'111.3
2018-Feb-12 06:55N 28°48' W 014°03'511.2
2018-Feb-12 06:30N 28°45' W 014°07'611.1
2018-Feb-12 06:00N 28°42' W 014°13'611.3
2018-Feb-12 05:30N 28°39' W 014°18'611.3
2018-Feb-12 05:00N 28°36' W 014°24'511.2
2018-Feb-12 04:30N 28°33' W 014°29'611.4
2018-Feb-12 04:00N 28°30' W 014°34'611.4
2018-Feb-12 03:30N 28°27' W 014°40'611.3
2018-Feb-12 03:00N 28°23' W 014°45'611.1
2018-Feb-12 02:30N 28°20' W 014°50'611.1
2018-Feb-12 02:00N 28°15' W 014°52'510.9
2018-Feb-12 01:30N 28°09' W 014°54'510.0
2018-Feb-12 01:00N 28°06' W 014°58'612.0
2018-Feb-12 00:30N 28°06' W 015°05'612.1
2018-Feb-12 00:00N 28°06' W 015°12'612.1
2018-Feb-11 23:30N 28°07' W 015°18'5 9.9
2018-Feb-11 23:00N 28°07' W 015°24'2 3.2
2018-Feb-11 22:28N 28°08' W 015°25'0 0.0
2018-Feb-11 21:58N 28°08' W 015°25'0 0.0
2018-Feb-11 21:25N 28°08' W 015°25'0 0.0
2018-Feb-11 20:58N 28°08' W 015°25'0 0.0
2018-Feb-11 20:28N 28°08' W 015°25'0 0.0
2018-Feb-11 19:58N 28°08' W 015°25'0 0.0
2018-Feb-11 19:28N 28°08' W 015°25'0 0.0
2018-Feb-11 18:58N 28°08' W 015°25'0 0.0
2018-Feb-11 18:28N 28°08' W 015°25'0 0.0
2018-Feb-11 17:58N 28°08' W 015°25'0 0.0
2018-Feb-11 17:28N 28°08' W 015°25'0 0.0
2018-Feb-11 16:46N 28°08' W 015°25'0 0.0
2018-Feb-11 16:19N 28°08' W 015°25'0 0.0
2018-Feb-11 15:49N 28°08' W 015°25'0 0.0
2018-Feb-11 15:22N 28°08' W 015°25'0 0.0
2018-Feb-11 14:52N 28°08' W 015°25'0 0.0
2018-Feb-11 14:22N 28°08' W 015°25'0 0.0
2018-Feb-11 13:49N 28°08' W 015°25'0 0.0
2018-Feb-11 13:22N 28°08' W 015°25'0 0.0
2018-Feb-11 12:55N 28°08' W 015°25'0 0.0
2018-Feb-11 12:25N 28°08' W 015°25'0 0.0
2018-Feb-11 11:55N 28°08' W 015°25'0 0.0
2018-Feb-11 11:25N 28°08' W 015°25'0 0.0
2018-Feb-11 10:55N 28°08' W 015°25'0 0.0
2018-Feb-11 10:25N 28°08' W 015°25'0 0.0
2018-Feb-11 09:58N 28°08' W 015°25'0 0.0
2018-Feb-11 09:25N 28°08' W 015°25'0 0.0
2018-Feb-11 08:58N 28°08' W 015°25'0 0.0
2018-Feb-11 08:25N 28°08' W 015°25'0 0.0
2018-Feb-11 07:58N 28°08' W 015°25'0 0.0
2018-Feb-11 07:28N 28°08' W 015°25'0 0.0
2018-Feb-11 06:46N 28°08' W 015°25'0 0.0
2018-Feb-11 06:28N 28°08' W 015°25'0 0.0
2018-Feb-11 05:58N 28°08' W 015°25'0 0.0
2018-Feb-11 05:28N 28°08' W 015°25'0 0.0
2018-Feb-11 04:58N 28°08' W 015°25'0 0.5
2018-Feb-11 04:30N 28°08' W 015°25'1 2.2
2018-Feb-11 04:00N 28°07' W 015°25'4 7.1
2018-Feb-11 03:30N 28°07' W 015°21'4 7.9
2018-Feb-11 03:00N 28°07' W 015°16'510.2
2018-Feb-11 02:30N 28°07' W 015°11'713.0
2018-Feb-11 02:00N 28°07' W 015°03'612.7
2018-Feb-11 01:30N 28°07' W 014°56'612.5
2018-Feb-11 01:00N 28°05' W 014°49'612.6
2018-Feb-11 00:30N 28°03' W 014°42'712.6
2018-Feb-10 23:59N 28°01' W 014°35'613.2
2018-Feb-10 23:30N 27°58' W 014°29'52 3.0
2018-Feb-10 06:15N 28°34' W 013°46'411.0
2018-Feb-10 05:55N 28°38' W 013°46'511.0
2018-Feb-10 05:31N 28°42' W 013°46'610.8
2018-Feb-10 04:59N 28°48' W 013°47'511.1
2018-Feb-10 04:31N 28°48' W 013°53'4313.6
2018-Feb-10 01:18N 28°43' W 014°42'515.5
2018-Feb-10 00:59N 28°42' W 014°48'715.1
2018-Feb-10 00:30N 28°41' W 014°56'713.6
2018-Feb-10 00:00N 28°40' W 015°04'815.5
2018-Feb-09 23:30N 28°39' W 015°13'815.2
2018-Feb-09 23:00N 28°38' W 015°21'415.3
2018-Feb-09 22:46N 28°37' W 015°25'4112.6
2018-Feb-09 19:30N 28°27' W 016°10'  

Dump ship's entire track history